createdAt,value
2023-02-17T00:03:24.931Z,42.05
2023-02-17T00:08:47.091Z,41.40
2023-02-17T00:14:12.762Z,41.45
2023-02-17T00:19:34.630Z,42.03
2023-02-17T00:24:56.659Z,41.83
2023-02-17T00:30:18.773Z,41.72
2023-02-17T00:35:40.862Z,42.03
2023-02-17T00:41:02.809Z,42.08
2023-02-17T00:46:26.182Z,40.13
2023-02-17T00:51:48.736Z,42.35
2023-02-17T00:57:11.020Z,41.67
2023-02-17T01:02:33.514Z,42.25
2023-02-17T01:07:56.121Z,39.63
2023-02-17T01:13:19.500Z,41.83
2023-02-17T01:18:41.358Z,39.70
2023-02-17T01:24:06.029Z,41.08
2023-02-17T01:29:27.979Z,41.45
2023-02-17T01:34:49.819Z,42.08
2023-02-17T01:40:14.037Z,39.08
2023-02-17T01:45:41.628Z,40.85
2023-02-17T01:51:10.958Z,40.00
2023-02-17T01:56:35.522Z,41.33
2023-02-17T02:02:00.535Z,39.97
2023-02-17T02:07:43.961Z,40.33
2023-02-17T02:13:07.597Z,39.17
2023-02-17T02:18:59.907Z,40.70
2023-02-17T02:24:44.290Z,39.15
2023-02-17T02:30:21.347Z,39.80
2023-02-17T02:35:56.340Z,39.33
2023-02-17T02:41:24.032Z,39.13
2023-02-17T02:46:45.894Z,39.05
2023-02-17T02:52:23.505Z,39.67
2023-02-17T02:58:06.227Z,38.30
2023-02-17T03:04:09.318Z,39.92
2023-02-17T03:09:31.894Z,37.85
2023-02-17T03:15:06.161Z,38.08
2023-02-17T03:20:32.877Z,39.13
2023-02-17T03:25:54.812Z,39.35
2023-02-17T03:31:17.066Z,37.65
2023-02-17T03:36:39.017Z,38.28
2023-02-17T03:42:02.243Z,38.25
2023-02-17T03:47:24.098Z,38.33
2023-02-17T03:52:46.095Z,38.25
2023-02-17T03:58:08.181Z,37.53
2023-02-17T04:03:30.056Z,37.20
2023-02-17T04:08:51.990Z,37.65
2023-02-17T04:14:13.891Z,38.20
2023-02-17T04:19:35.801Z,39.35
2023-02-17T04:24:57.688Z,39.03
2023-02-17T04:30:20.219Z,39.42
2023-02-17T04:35:42.632Z,38.22
2023-02-17T04:41:05.125Z,38.40
2023-02-17T04:46:27.103Z,35.75
2023-02-17T04:51:48.984Z,37.20
2023-02-17T04:57:10.899Z,37.30
2023-02-17T05:02:32.992Z,38.13
2023-02-17T05:07:54.826Z,37.00
2023-02-17T05:13:16.769Z,39.03
2023-02-17T05:18:38.683Z,37.60
2023-02-17T05:24:00.477Z,37.22
2023-02-17T05:29:22.327Z,38.30
2023-02-17T05:34:44.335Z,39.45
2023-02-17T05:40:07.145Z,39.03
2023-02-17T05:45:29.002Z,38.50
2023-02-17T05:50:50.886Z,40.75
2023-02-17T05:56:12.754Z,39.92
2023-02-17T06:01:37.073Z,39.85
2023-02-17T06:06:59.210Z,38.10
2023-02-17T06:12:21.449Z,39.25
2023-02-17T06:17:43.360Z,38.28
2023-02-17T06:23:05.349Z,38.67
2023-02-17T06:28:28.327Z,38.63
2023-02-17T06:33:50.190Z,37.60
2023-02-17T06:39:12.064Z,37.50
2023-02-17T06:44:33.908Z,36.40
2023-02-17T06:49:55.801Z,37.55
2023-02-17T06:55:17.691Z,37.45
2023-02-17T07:00:39.531Z,38.95
2023-02-17T07:06:01.382Z,36.28
2023-02-17T07:11:23.354Z,37.97
2023-02-17T07:16:45.246Z,35.88
2023-02-17T07:22:07.215Z,35.75
2023-02-17T07:27:29.078Z,35.55
2023-02-17T07:32:50.962Z,35.22
2023-02-17T07:38:12.923Z,36.78
2023-02-17T07:43:35.021Z,36.97
2023-02-17T07:48:57.863Z,37.45
2023-02-17T07:54:19.778Z,35.92
2023-02-17T07:59:41.602Z,34.95
2023-02-17T08:05:03.515Z,33.30
2023-02-17T08:10:25.351Z,34.13
2023-02-17T08:15:47.247Z,32.67
2023-02-17T08:21:09.086Z,34.65
2023-02-17T08:26:31.106Z,34.28
2023-02-17T08:31:53.502Z,33.00
2023-02-17T08:37:15.601Z,33.53
2023-02-17T08:42:37.429Z,33.20
2023-02-17T08:47:59.257Z,34.65
2023-02-17T08:53:21.152Z,34.10
2023-02-17T08:58:43.022Z,33.22
2023-02-17T09:04:08.326Z,32.33
2023-02-17T09:09:30.205Z,33.97
2023-02-17T09:14:52.086Z,32.00
2023-02-17T09:20:24.250Z,32.63
2023-02-17T09:25:47.281Z,32.45
2023-02-17T09:31:11.823Z,32.08
2023-02-17T09:36:38.917Z,32.22
2023-02-17T09:42:00.774Z,31.80
2023-02-17T09:47:27.007Z,31.98
2023-02-17T09:53:11.537Z,31.17
2023-02-17T09:58:40.640Z,32.53
2023-02-17T10:04:26.101Z,32.60
2023-02-17T10:09:52.469Z,31.50
2023-02-17T10:15:19.112Z,32.88
2023-02-17T10:20:47.505Z,31.75
2023-02-17T10:26:20.714Z,32.65
2023-02-17T10:31:47.079Z,31.23
2023-02-17T10:37:11.680Z,31.98
2023-02-17T10:42:38.851Z,32.85
2023-02-17T10:48:12.759Z,31.95
2023-02-17T10:53:39.752Z,30.75
2023-02-17T10:59:19.179Z,31.85
2023-02-17T11:04:43.670Z,32.58
2023-02-17T11:10:23.147Z,32.88
2023-02-17T11:15:47.628Z,30.60
2023-02-17T11:21:11.313Z,32.25
2023-02-17T11:26:35.518Z,32.97
2023-02-17T11:31:59.187Z,32.60
2023-02-17T11:37:23.367Z,32.45
2023-02-17T11:42:56.133Z,31.58
2023-02-17T11:48:57.556Z,33.45
2023-02-17T11:54:25.231Z,36.05
2023-02-17T12:00:27.208Z,31.92
2023-02-17T12:06:07.747Z,33.00
2023-02-17T12:11:43.880Z,31.27
2023-02-17T12:17:24.340Z,31.05
2023-02-17T12:23:13.383Z,31.73
2023-02-17T12:28:53.630Z,31.38
2023-02-17T12:34:18.372Z,30.95
2023-02-17T12:39:50.048Z,34.30
2023-02-17T12:45:14.885Z,31.35
2023-02-17T12:50:54.748Z,30.92
2023-02-17T12:56:25.352Z,32.95
2023-02-17T13:01:59.059Z,29.73
2023-02-17T13:07:36.065Z,27.50
2023-02-17T13:13:11.949Z,27.63
2023-02-17T13:18:36.620Z,28.03
2023-02-17T13:24:01.043Z,25.52
2023-02-17T13:29:25.841Z,25.92
2023-02-17T13:35:00.653Z,23.25
2023-02-17T13:40:22.448Z,24.25
2023-02-17T13:46:07.310Z,21.80
2023-02-17T13:51:30.877Z,22.73
2023-02-17T13:56:53.696Z,21.05
2023-02-17T14:02:35.155Z,20.40
2023-02-17T14:08:06.540Z,20.20
2023-02-17T14:13:29.286Z,19.63
2023-02-17T14:19:08.942Z,20.90
2023-02-17T14:24:37.621Z,21.25
2023-02-17T14:29:59.580Z,21.52
2023-02-17T14:35:23.567Z,20.90
2023-02-17T14:40:45.474Z,20.90
2023-02-17T14:46:07.625Z,19.15
2023-02-17T14:51:36.537Z,20.63
2023-02-17T14:57:11.843Z,19.00
2023-02-17T15:02:37.474Z,19.10
2023-02-17T15:08:01.062Z,19.13
2023-02-17T15:13:22.940Z,19.85
2023-02-17T15:18:44.781Z,20.83
2023-02-17T15:24:15.837Z,20.05
2023-02-17T15:29:37.700Z,20.27
2023-02-17T15:34:59.850Z,20.90
2023-02-17T15:40:24.347Z,20.20
2023-02-17T15:45:46.522Z,20.88
2023-02-17T15:51:11.628Z,20.65
2023-02-17T15:56:45.387Z,21.05
2023-02-17T16:02:21.459Z,21.58
2023-02-17T16:07:43.902Z,22.35
2023-02-17T16:13:05.872Z,19.98
2023-02-17T16:18:27.692Z,20.17
2023-02-17T16:23:49.804Z,18.83
2023-02-17T16:29:21.961Z,18.25
2023-02-17T16:34:44.005Z,17.98
2023-02-17T16:40:15.525Z,16.95
2023-02-17T16:45:37.506Z,17.60
2023-02-17T16:50:59.538Z,15.80
2023-02-17T16:56:25.268Z,14.75
2023-02-17T17:01:47.817Z,14.60
2023-02-17T17:07:14.023Z,14.38
2023-02-17T17:12:35.874Z,14.85
2023-02-17T17:17:58.991Z,14.20
2023-02-17T17:23:20.791Z,13.80
2023-02-17T17:28:42.657Z,13.55
2023-02-17T17:34:04.501Z,14.75
2023-02-17T17:39:26.432Z,13.70
2023-02-17T17:44:48.293Z,13.32
2023-02-17T17:50:16.809Z,13.57
2023-02-17T17:55:38.668Z,12.90
2023-02-17T18:01:00.728Z,12.70
2023-02-17T18:06:47.399Z,13.18
2023-02-17T18:12:16.001Z,11.85
2023-02-17T18:17:40.502Z,10.68
2023-02-17T18:23:02.554Z,9.93
2023-02-17T18:28:24.448Z,10.85
2023-02-17T18:33:46.463Z,10.02
2023-02-17T18:39:08.356Z,9.23
2023-02-17T18:44:30.193Z,9.85
2023-02-17T18:49:52.245Z,9.43
2023-02-17T18:55:14.903Z,9.00
2023-02-17T19:00:36.751Z,10.35
2023-02-17T19:05:58.703Z,8.68
2023-02-17T19:11:22.460Z,8.30
2023-02-17T19:16:44.347Z,8.40
2023-02-17T19:22:07.226Z,8.90
2023-02-17T19:27:29.388Z,9.63
2023-02-17T19:32:51.218Z,9.13
2023-02-17T19:38:13.095Z,11.85
2023-02-17T19:43:35.686Z,10.88
2023-02-17T19:48:57.495Z,10.85
2023-02-17T19:54:19.401Z,11.90
2023-02-17T19:59:41.295Z,10.40
2023-02-17T20:05:03.999Z,10.95
2023-02-17T20:10:25.835Z,11.45
2023-02-17T20:15:47.730Z,12.13
2023-02-17T20:21:11.481Z,13.00
2023-02-17T20:26:38.167Z,12.25
2023-02-17T20:32:00.663Z,11.65
2023-02-17T20:37:22.634Z,12.43
2023-02-17T20:42:44.519Z,11.70
2023-02-17T20:48:07.048Z,12.07
2023-02-17T20:53:28.863Z,11.73
2023-02-17T20:58:51.933Z,11.45
2023-02-17T21:04:13.894Z,11.15
2023-02-17T21:09:35.746Z,9.93
2023-02-17T21:14:57.604Z,10.75
2023-02-17T21:20:21.681Z,9.65
2023-02-17T21:25:45.516Z,9.73
2023-02-17T21:31:07.962Z,10.23
2023-02-17T21:36:30.131Z,9.18
2023-02-17T21:41:51.990Z,8.32
2023-02-17T21:47:14.429Z,7.72
2023-02-17T21:52:36.302Z,7.22
2023-02-17T21:57:58.703Z,6.70
2023-02-17T22:03:20.647Z,5.60
2023-02-17T22:08:42.567Z,4.90
2023-02-17T22:14:07.432Z,4.90
2023-02-17T22:19:31.369Z,3.90
2023-02-17T22:24:53.468Z,4.28
2023-02-17T22:30:15.696Z,3.58
2023-02-17T22:35:37.568Z,2.35
2023-02-17T22:41:00.009Z,2.08
2023-02-17T22:46:24.916Z,1.73
2023-02-17T22:51:46.822Z,1.70
2023-02-17T22:57:08.671Z,1.60
2023-02-17T23:02:34.265Z,2.00
2023-02-17T23:07:56.180Z,1.67
2023-02-17T23:13:18.096Z,1.55
2023-02-17T23:18:40.418Z,1.20
2023-02-17T23:24:03.090Z,1.30
2023-02-17T23:29:24.937Z,1.48
2023-02-17T23:34:46.766Z,1.73
2023-02-17T23:40:10.176Z,1.40
2023-02-17T23:45:33.031Z,2.25
2023-02-17T23:50:59.326Z,1.50
2023-02-17T23:56:27.788Z,1.63
